Time;durP1;ratioP1;P1;durP2;ratioP2;P2;SDS_P1;SDS_P2;PMS_P1;PMS_P2;Temp;Humidity;BMP_temperature;BMP_pressure;BME280_temperature;BME280_humidity;BME280_pressure;Samples;Min_cycle;Max_cycle;Signal;HPM_P1;HPM_P2
2021/01/04 15:37:52;;;;;;;28.25;16.90;;;0.80;96.20;;;;;;5070431;28;20399;-92
2021/01/04 15:40:19;;;;;;;26.58;14.75;;;0.80;96.70;;;;;;5056838;28;20449;-90
2021/01/04 15:42:45;;;;;;;34.65;17.50;;;0.80;96.90;;;;;;5038983;28;20369;-91
2021/01/04 15:45:12;;;;;;;32.45;19.73;;;0.90;96.80;;;;;;5043669;28;20124;-92
2021/01/04 15:47:38;;;;;;;34.63;20.70;;;0.90;96.90;;;;;;5039643;28;20052;-91
2021/01/04 15:50:06;;;;;;;31.65;17.85;;;0.90;97.00;;;;;;5050536;28;20033;-93
2021/01/04 15:52:32;;;;;;;31.92;19.08;;;1.00;96.90;;;;;;5049167;28;20037;-94
2021/01/04 15:54:58;;;;;;;33.55;18.60;;;1.10;96.40;;;;;;5041266;28;20478;-94
2021/01/04 15:57:24;;;;;;;31.17;16.02;;;1.10;96.10;;;;;;5062841;28;20056;-94
2021/01/04 15:59:50;;;;;;;29.88;18.30;;;1.10;95.70;;;;;;5031494;28;20022;-93
2021/01/04 16:02:16;;;;;;;29.73;16.20;;;1.10;95.60;;;;;;5039976;28;20030;-93
2021/01/04 16:04:42;;;;;;;37.53;19.55;;;1.00;95.60;;;;;;5038442;28;20377;-93
2021/01/04 16:07:08;;;;;;;38.25;19.45;;;1.00;95.60;;;;;;5029505;28;20478;-93
2021/01/04 16:09:34;;;;;;;31.95;18.20;;;1.00;95.80;;;;;;5031058;28;20029;-91
2021/01/04 16:12:02;;;;;;;34.63;19.85;;;1.00;95.90;;;;;;5030562;28;20022;-93
2021/01/04 16:14:29;;;;;;;31.92;16.40;;;1.00;95.50;;;;;;5030321;28;20029;-92
2021/01/04 16:16:57;;;;;;;25.98;14.98;;;1.00;95.40;;;;;;5029567;28;20033;-92
2021/01/04 16:19:24;;;;;;;34.30;19.08;;;1.00;95.30;;;;;;5030117;28;20018;-93
2021/01/04 16:21:50;;;;;;;60.08;32.08;;;0.90;95.50;;;;;;5035585;28;20493;-92
2021/01/04 16:24:17;;;;;;;61.22;37.65;;;0.90;95.40;;;;;;5040607;28;20026;-93
2021/01/04 16:26:43;;;;;;;45.50;26.30;;;0.90;95.40;;;;;;5050560;28;20028;-94
2021/01/04 16:29:09;;;;;;;47.63;27.35;;;0.90;95.20;;;;;;5048925;28;20474;-92
2021/01/04 16:31:46;;;;;;;64.00;41.53;;;0.80;95.40;;;;;;5048568;28;20370;-92
2021/01/04 16:34:13;;;;;;;54.17;34.28;;;0.80;95.60;;;;;;5048867;28;20116;-94
2021/01/04 16:36:39;;;;;;;63.53;38.13;;;0.80;95.80;;;;;;5047105;28;20111;-94
2021/01/04 16:39:05;;;;;;;38.83;23.88;;;0.80;95.60;;;;;;5040117;28;20489;-92
2021/01/04 16:41:31;;;;;;;46.67;27.40;;;0.80;95.80;;;;;;5061498;28;20032;-94
2021/01/04 16:43:57;;;;;;;43.78;25.70;;;0.90;95.70;;;;;;5069702;28;20025;-93
2021/01/04 16:46:22;;;;;;;40.13;24.05;;;0.90;95.70;;;;;;5047770;28;20021;-94
2021/01/04 16:48:49;;;;;;;35.08;20.00;;;0.90;96.00;;;;;;5036403;28;20228;-93
2021/01/04 16:51:23;;;;;;;43.13;23.50;;;0.90;96.10;;;;;;5033038;28;20158;-88
2021/01/04 16:53:49;;;;;;;40.38;24.60;;;0.90;95.70;;;;;;5035743;28;20492;-90
2021/01/04 16:56:15;;;;;;;45.28;23.95;;;0.90;95.60;;;;;;5033725;28;20029;-93
2021/01/04 16:58:41;;;;;;;35.40;21.67;;;0.90;95.60;;;;;;5034925;28;20029;-93
2021/01/04 17:01:06;;;;;;;34.50;20.67;;;0.90;95.70;;;;;;5060792;28;20386;-94
2021/01/04 17:03:32;;;;;;;33.92;18.42;;;0.90;95.50;;;;;;5030159;28;20029;-92
2021/01/04 17:05:58;;;;;;;33.47;19.98;;;0.90;95.50;;;;;;5033884;28;20100;-93
2021/01/04 17:08:23;;;;;;;36.00;21.52;;;0.80;95.50;;;;;;5035181;28;20021;-91
2021/01/04 17:10:49;;;;;;;24.38;14.02;;;0.80;95.50;;;;;;5033859;28;20437;-91
2021/01/04 17:13:16;;;;;;;26.88;15.50;;;0.80;95.30;;;;;;5055837;28;20025;-92
2021/01/04 17:15:42;;;;;;;31.50;19.23;;;0.80;95.00;;;;;;5031433;28;20025;-92
2021/01/04 17:18:08;;;;;;;27.95;16.90;;;0.70;95.20;;;;;;5038318;28;20481;-93
2021/01/04 17:20:37;;;;;;;33.92;19.35;;;0.70;95.50;;;;;;5038232;28;20092;-93
2021/01/04 17:23:03;;;;;;;31.55;18.85;;;0.70;95.50;;;;;;5034746;28;20021;-91
2021/01/04 17:25:29;;;;;;;30.65;18.00;;;0.70;95.60;;;;;;5032519;28;20022;-93
2021/01/04 17:27:54;;;;;;;34.08;21.20;;;0.70;95.80;;;;;;5031739;28;20051;-93
2021/01/04 17:30:30;;;;;;;28.65;17.13;;;0.70;95.70;;;;;;5035983;28;20517;-92
2021/01/04 17:32:56;;;;;;;27.00;15.63;;;0.70;95.70;;;;;;5032707;28;20026;-95
2021/01/04 17:35:21;;;;;;;33.33;17.70;;;0.70;95.50;;;;;;5031219;28;20037;-92
2021/01/04 17:37:47;;;;;;;33.20;19.35;;;0.70;95.50;;;;;;5064745;28;20037;-91
2021/01/04 17:40:14;;;;;;;30.98;18.17;;;0.70;95.40;;;;;;5032526;28;20362;-92
2021/01/04 17:42:48;;;;;;;38.00;21.52;;;0.70;95.50;;;;;;5035239;28;20120;-91
2021/01/04 17:45:16;;;;;;;37.05;22.20;;;0.70;95.60;;;;;;5031571;28;20033;-93
2021/01/04 17:47:47;;;;;;;36.28;21.83;;;0.70;95.70;;;;;;5034180;28;20033;-93
2021/01/04 17:50:14;;;;;;;35.95;20.05;;;0.70;95.80;;;;;;5031285;28;20049;-91
2021/01/04 17:52:40;;;;;;;25.83;13.48;;;0.80;96.00;;;;;;5032016;28;20028;-91
2021/01/04 17:55:07;;;;;;;30.73;14.35;;;0.80;95.60;;;;;;5032395;28;20109;-91
2021/01/04 17:57:33;;;;;;;25.80;14.20;;;0.80;95.50;;;;;;5026861;28;20025;-93
2021/01/04 17:59:59;;;;;;;29.60;16.65;;;0.70;95.50;;;;;;5030881;28;20034;-95
2021/01/04 18:02:28;;;;;;;28.75;13.75;;;0.70;95.60;;;;;;5045678;28;20033;-94
2021/01/04 18:04:57;;;;;;;28.40;15.55;;;0.70;95.60;;;;;;5065017;28;20038;-96
2021/01/04 18:07:23;;;;;;;24.90;12.15;;;0.70;95.50;;;;;;5050407;28;20040;-96
2021/01/04 18:09:49;;;;;;;27.50;13.88;;;0.60;95.40;;;;;;5057339;28;20503;-95
2021/01/04 18:12:16;;;;;;;27.27;15.43;;;0.60;95.50;;;;;;5049971;28;20025;-94
2021/01/04 18:14:42;;;;;;;26.02;15.13;;;0.60;95.50;;;;;;5046860;28;20029;-96
2021/01/04 18:17:08;;;;;;;23.40;12.25;;;0.60;95.50;;;;;;5047812;28;20032;-96
2021/01/04 18:19:34;;;;;;;29.77;15.65;;;0.50;95.70;;;;;;5060585;28;20021;-96
2021/01/04 18:22:03;;;;;;;29.27;13.60;;;0.50;95.80;;;;;;5051267;28;20037;-96
2021/01/04 18:24:46;;;;;;;36.13;18.00;;;0.50;95.70;;;;;;5072709;28;20047;-96
2021/01/04 18:27:19;;;;;;;37.92;19.70;;;0.60;95.80;;;;;;5064159;28;20069;-96
2021/01/04 18:29:46;;;;;;;40.05;19.05;;;0.60;95.90;;;;;;5156665;22;20068;-94
2021/01/04 18:32:11;;;;;;;45.17;19.15;;;0.60;96.00;;;;;;5018420;28;20029;-93
2021/01/04 18:34:40;;;;;;;38.65;15.32;;;0.60;95.90;;;;;;5033799;28;20044;-96
2021/01/04 18:37:07;;;;;;;39.85;18.85;;;0.60;95.70;;;;;;5027703;28;20083;-93
2021/01/04 18:39:33;;;;;;;41.17;17.58;;;0.50;95.70;;;;;;5022041;28;20124;-92
2021/01/04 18:41:59;;;;;;;35.72;17.95;;;0.50;95.60;;;;;;5019389;28;20078;-92
2021/01/04 18:44:26;;;;;;;52.33;16.23;;;0.50;95.80;;;;;;5026038;28;20017;-95
2021/01/04 18:46:53;;;;;;;40.20;20.60;;;0.50;95.90;;;;;;5023746;28;20033;-93
2021/01/04 18:49:22;;;;;;;42.30;20.67;;;0.50;95.80;;;;;;5028029;28;20056;-91
2021/01/04 18:51:50;;;;;;;48.45;21.60;;;0.50;96.00;;;;;;5029699;28;20032;-92
2021/01/04 18:54:20;;;;;;;58.55;24.65;;;0.60;96.10;;;;;;5021731;28;20026;-93
2021/01/04 18:56:46;;;;;;;60.00;24.83;;;0.60;95.90;;;;;;5025541;28;20029;-93
2021/01/04 18:59:15;;;;;;;57.72;23.73;;;0.50;95.70;;;;;;5019539;28;20405;-93
2021/01/04 19:01:41;;;;;;;59.50;20.88;;;0.50;95.70;;;;;;5026689;28;20030;-93
2021/01/04 19:04:07;;;;;;;66.15;25.00;;;0.50;95.70;;;;;;5024352;28;20171;-94
2021/01/04 19:06:35;;;;;;;72.05;26.65;;;0.40;95.80;;;;;;5023831;28;20036;-93
2021/01/04 19:09:03;;;;;;;86.72;29.13;;;0.40;95.90;;;;;;5029071;28;20466;-93
2021/01/04 19:11:36;;;;;;;89.30;33.72;;;0.40;96.00;;;;;;5020313;28;20057;-93
2021/01/04 19:14:05;;;;;;;94.75;30.30;;;0.40;96.10;;;;;;5029520;28;20473;-95
2021/01/04 19:16:31;;;;;;;94.97;29.67;;;0.40;96.20;;;;;;5029373;28;20052;-96
2021/01/04 19:18:57;;;;;;;99.40;31.55;;;0.40;96.20;;;;;;5026120;28;20031;-92
2021/01/04 19:21:33;;;;;;;104.22;34.25;;;0.50;96.30;;;;;;5037057;28;20032;-96
2021/01/04 19:24:03;;;;;;;103.95;32.42;;;0.50;96.40;;;;;;5033023;28;20029;-96
2021/01/04 19:26:37;;;;;;;99.75;31.15;;;0.50;96.40;;;;;;5031882;28;20021;-95
2021/01/04 19:29:05;;;;;;;107.00;32.80;;;0.50;96.30;;;;;;5040473;28;20031;-96
2021/01/04 19:31:43;;;;;;;112.35;29.98;;;0.50;96.30;;;;;;5028360;28;20101;-95
2021/01/04 20:13:05;;;;;;;102.65;28.02;;;-0.50;98.00;;;;;;5101497;28;20390;-96
2021/01/04 20:32:19;;;;;;;86.13;25.92;;;-0.40;98.40;;;;;;5092989;28;20391;-95
